Waterville, Minnesota
Current Conditions -  °F | °C
As of 12:35 PM on Thursday 27 Nov 2014 (Local Time) from KACQ Reporting Station
Clear Clear  
Wind Chill:   Ceiling: Unl
Heat Index:   Visibility: 10mi
Dew Point: -8°   Wind: 0mph
Humidity: 72%   Direction: NA
Pressure: 30.48"   Gusts: NA
Location:  44.22°N, 93.57°W
Report Text: KACQ 271835Z AUTO 00000KT 10SM CLR M18/M22 A3048 RMK AO2
Loading
Personal Weather Stations






























Interactive Weather Map New forecast layout! Learn more

10-Day Weather Forecast

Advertisements
Track Severe Weather on mobile